Time;durP1;ratioP1;P1;durP2;ratioP2;P2;SDS_P1;SDS_P2;PMS_P1;PMS_P2;Temp;Humidity;BMP_temperature;BMP_pressure;BME280_temperature;BME280_humidity;BME280_pressure;Samples;Min_cycle;Max_cycle;Signal;HPM_P1;HPM_P2
2023/06/25 00:00:27;;;;;;;7.15;5.40;;;;;;;24.99;50.31;101961.25;5034617;28;20033;-67
2023/06/25 00:02:52;;;;;;;7.03;4.90;;;;;;;24.99;50.73;101960.38;5035021;28;20033;-67
2023/06/25 00:05:17;;;;;;;6.45;4.78;;;;;;;24.98;50.51;101953.41;5035021;28;20045;-67
2023/06/25 00:07:42;;;;;;;6.72;4.70;;;;;;;24.99;50.43;101949.72;5034685;28;20037;-67
2023/06/25 00:10:08;;;;;;;7.53;4.80;;;;;;;24.98;50.64;101953.41;5034497;28;20312;-67
2023/06/25 00:12:33;;;;;;;6.90;5.15;;;;;;;24.98;50.26;101943.56;5034814;28;20088;-67
2023/06/25 00:14:59;;;;;;;7.22;5.45;;;;;;;24.97;50.72;101943.69;5034924;28;20060;-67
2023/06/25 00:17:27;;;;;;;6.60;4.95;;;;;;;24.97;50.56;101944.53;5034345;28;20029;-68
2023/06/25 00:19:56;;;;;;;7.03;5.15;;;;;;;24.94;50.63;101942.19;5049616;28;20025;-66
2023/06/25 00:22:22;;;;;;;8.45;5.30;;;;;;;24.95;50.79;101949.19;5034716;28;20029;-66
2023/06/25 00:24:47;;;;;;;7.22;5.00;;;;;;;24.94;50.68;101936.84;5033737;28;20478;-67
2023/06/25 00:27:13;;;;;;;7.68;4.68;;;;;;;24.95;50.40;101940.34;5034567;28;20025;-66
2023/06/25 00:29:38;;;;;;;8.13;5.03;;;;;;;24.94;50.72;101933.31;5034403;28;20087;-66
2023/06/25 00:32:04;;;;;;;6.90;4.90;;;;;;;24.94;50.37;101931.50;5034444;28;20103;-66
2023/06/25 00:34:29;;;;;;;7.07;5.00;;;;;;;24.94;50.39;101934.19;5034280;28;20287;-66
2023/06/25 00:36:54;;;;;;;6.90;4.80;;;;;;;24.94;50.61;101926.19;5033942;28;20425;-67
2023/06/25 00:39:20;;;;;;;7.97;5.20;;;;;;;24.94;50.64;101935.97;5034186;28;20057;-67
2023/06/25 00:41:45;;;;;;;7.05;5.07;;;;;;;24.96;50.62;101931.38;5034261;28;20037;-66
2023/06/25 00:44:11;;;;;;;7.47;5.20;;;;;;;24.95;50.37;101919.00;5034118;28;20065;-67
2023/06/25 00:46:36;;;;;;;8.00;5.20;;;;;;;24.95;50.35;101916.34;5034143;28;20598;-66
2023/06/25 00:49:05;;;;;;;7.68;5.28;;;;;;;24.94;50.66;101920.84;5034138;28;20033;-66
2023/06/25 00:51:32;;;;;;;7.35;5.15;;;;;;;24.94;50.54;101920.84;5032597;28;20417;-66
2023/06/25 00:53:58;;;;;;;6.55;5.10;;;;;;;24.94;50.42;101920.84;5033033;28;20028;-66
2023/06/25 00:56:30;;;;;;;7.72;5.03;;;;;;;24.91;50.48;101915.81;5033450;28;20492;-66
2023/06/25 00:59:00;;;;;;;6.78;5.10;;;;;;;24.91;50.55;101915.81;5033288;28;20397;-66
2023/06/25 01:01:36;;;;;;;6.68;5.00;;;;;;;24.90;50.51;101908.78;5033934;28;20088;-66
2023/06/25 01:04:08;;;;;;;7.10;5.38;;;;;;;24.89;50.68;101901.75;5033618;28;20041;-66
2023/06/25 01:06:40;;;;;;;8.00;5.72;;;;;;;24.88;50.46;101901.91;5032968;28;20029;-66
2023/06/25 01:09:10;;;;;;;7.82;5.05;;;;;;;24.91;50.82;101904.28;5033418;28;20043;-65
2023/06/25 01:11:37;;;;;;;7.35;5.05;;;;;;;24.92;50.67;101905.97;5033489;28;20473;-67
2023/06/25 01:14:02;;;;;;;7.90;5.15;;;;;;;24.90;50.55;101905.28;5033372;28;20418;-67
2023/06/25 01:16:28;;;;;;;6.97;4.97;;;;;;;24.90;50.56;101897.28;5033177;28;20047;-66
2023/06/25 01:18:56;;;;;;;6.70;4.70;;;;;;;24.89;50.39;101899.09;5032557;28;20057;-67
2023/06/25 01:21:26;;;;;;;7.00;5.07;;;;;;;24.88;50.38;101902.75;5032218;28;20935;-66
2023/06/25 01:23:52;;;;;;;8.07;5.25;;;;;;;24.90;50.81;101900.78;5033587;28;20037;-67
2023/06/25 01:26:17;;;;;;;7.32;5.28;;;;;;;24.89;50.66;101898.25;5032698;28;20040;-67
2023/06/25 01:28:43;;;;;;;7.10;5.55;;;;;;;24.91;50.92;101897.13;5033344;28;20044;-67
2023/06/25 01:31:08;;;;;;;6.93;5.30;;;;;;;24.89;50.38;101885.75;5033027;28;20037;-67
2023/06/25 01:33:33;;;;;;;7.30;5.40;;;;;;;24.88;50.75;101885.91;5033024;28;20052;-67
2023/06/25 01:35:59;;;;;;;6.95;5.57;;;;;;;24.89;50.69;101879.59;5032833;28;20167;-68
2023/06/25 01:38:24;;;;;;;8.05;5.40;;;;;;;24.90;50.60;101883.94;5033263;28;20033;-67
2023/06/25 01:40:49;;;;;;;7.93;5.70;;;;;;;24.89;50.68;101883.09;5032526;28;20060;-68
2023/06/25 01:43:15;;;;;;;7.53;5.00;;;;;;;24.87;50.71;101876.25;5033338;28;20381;-68
2023/06/25 01:45:40;;;;;;;8.10;5.53;;;;;;;24.89;50.79;101880.41;5033010;28;20384;-68
2023/06/25 01:48:06;;;;;;;8.30;5.82;;;;;;;24.87;50.50;101869.06;5032795;28;20029;-67
2023/06/25 01:50:33;;;;;;;7.95;5.43;;;;;;;24.86;50.81;101872.72;5032984;28;20038;-67
2023/06/25 01:52:58;;;;;;;7.68;5.60;;;;;;;24.86;50.47;101859.38;5031878;28;20030;-67
2023/06/25 01:55:24;;;;;;;7.00;5.47;;;;;;;24.87;50.84;101866.41;5032573;28;20056;-67
2023/06/25 01:57:49;;;;;;;8.35;5.47;;;;;;;24.87;50.42;101853.06;5031229;28;20065;-66
2023/06/25 02:00:15;;;;;;;8.32;6.00;;;;;;;24.87;50.79;101861.06;5032752;28;20119;-65
2023/06/25 02:02:40;;;;;;;7.50;5.35;;;;;;;24.86;50.65;101862.06;5032662;28;20120;-66
2023/06/25 02:05:05;;;;;;;7.43;5.78;;;;;;;24.85;50.75;101855.06;5031873;28;20124;-66
2023/06/25 02:07:31;;;;;;;7.20;5.18;;;;;;;24.83;50.45;101845.50;5032032;28;20029;-67
2023/06/25 02:09:57;;;;;;;7.95;6.20;;;;;;;24.85;50.57;101843.53;5032693;28;20033;-67
2023/06/25 02:12:22;;;;;;;7.00;5.60;;;;;;;24.86;50.65;101848.72;5032737;28;20065;-67
2023/06/25 02:14:47;;;;;;;7.95;5.82;;;;;;;24.84;50.47;101837.38;5032475;28;20108;-67
2023/06/25 02:17:12;;;;;;;9.43;5.68;;;;;;;24.83;50.80;101838.34;5031420;28;20076;-67
2023/06/25 02:19:38;;;;;;;7.95;5.70;;;;;;;24.83;50.48;101833.00;5031824;28;20049;-67
2023/06/25 02:22:03;;;;;;;8.00;5.63;;;;;;;24.82;50.36;101834.03;5032423;28;20052;-68
2023/06/25 02:24:29;;;;;;;6.70;5.53;;;;;;;24.84;50.53;101831.22;5031853;28;20421;-65
2023/06/25 02:26:54;;;;;;;7.70;5.60;;;;;;;24.83;50.65;101824.19;5031885;28;20068;-67
2023/06/25 02:29:19;;;;;;;7.72;5.78;;;;;;;24.82;50.25;101826.03;5032138;28;20036;-66
2023/06/25 02:31:44;;;;;;;7.28;5.80;;;;;;;24.82;50.39;101828.69;5031591;28;20396;-67
2023/06/25 02:34:10;;;;;;;9.15;6.05;;;;;;;24.83;50.67;101826.84;5031299;28;20492;-67
2023/06/25 02:36:35;;;;;;;8.07;6.22;;;;;;;24.81;50.50;101813.66;5032158;28;20033;-67
2023/06/25 02:39:00;;;;;;;8.18;6.10;;;;;;;24.80;50.69;101812.84;5032026;28;20101;-67
2023/06/25 02:41:26;;;;;;;8.35;5.63;;;;;;;24.80;50.41;101803.97;5032249;28;21013;-67
2023/06/25 02:43:51;;;;;;;8.85;6.40;;;;;;;24.81;50.69;101805.66;5032099;28;20033;-67
2023/06/25 02:46:16;;;;;;;7.75;6.00;;;;;;;24.79;50.81;101804.97;5031496;28;20033;-68
2023/06/25 02:48:42;;;;;;;8.45;6.15;;;;;;;24.79;50.86;101807.66;5031576;28;20030;-67
2023/06/25 02:51:09;;;;;;;7.70;6.03;;;;;;;24.80;50.51;101806.66;5031471;28;20032;-68
2023/06/25 02:53:35;;;;;;;9.15;6.20;;;;;;;24.79;50.47;101804.97;5030983;28;20470;-68
2023/06/25 02:56:00;;;;;;;7.60;6.22;;;;;;;24.77;50.52;101802.47;5031292;28;20044;-67
2023/06/25 02:58:25;;;;;;;8.38;6.55;;;;;;;24.79;50.48;101802.31;5031075;28;20037;-68
2023/06/25 03:00:51;;;;;;;9.93;6.47;;;;;;;24.78;50.56;101805.97;5031408;28;20079;-67
2023/06/25 03:03:16;;;;;;;9.70;6.40;;;;;;;24.79;50.35;101807.66;5031539;28;20284;-68
2023/06/25 03:05:41;;;;;;;7.72;6.43;;;;;;;24.79;50.54;101802.31;5031638;28;20528;-65
2023/06/25 03:08:07;;;;;;;8.38;6.43;;;;;;;24.78;50.56;101798.81;5031431;28;20036;-67
2023/06/25 03:10:33;;;;;;;8.40;6.25;;;;;;;24.78;50.55;101801.50;5031473;28;20806;-67
2023/06/25 03:12:59;;;;;;;7.93;6.40;;;;;;;24.76;50.38;101799.94;5031412;28;20040;-67
2023/06/25 03:15:24;;;;;;;8.73;6.55;;;;;;;24.77;50.41;101802.47;5031596;28;20033;-67
2023/06/25 03:17:50;;;;;;;7.97;6.45;;;;;;;24.77;50.76;101796.31;5030939;28;20050;-67
2023/06/25 03:20:15;;;;;;;7.65;6.20;;;;;;;24.75;50.59;101790.25;5031622;28;20032;-67
2023/06/25 03:22:41;;;;;;;9.43;7.38;;;;;;;24.76;50.52;101794.63;5031200;28;20118;-67
2023/06/25 03:25:07;;;;;;;8.15;6.43;;;;;;;24.74;50.67;101794.75;5030991;28;20092;-67
2023/06/25 03:27:36;;;;;;;8.95;6.35;;;;;;;24.74;50.64;101799.25;5030977;28;20065;-67
2023/06/25 03:30:02;;;;;;;9.00;7.15;;;;;;;24.74;50.63;101793.94;5030197;28;20033;-66
2023/06/25 03:32:28;;;;;;;8.48;6.28;;;;;;;24.73;50.34;101801.06;5030855;28;20045;-67
2023/06/25 03:34:55;;;;;;;9.18;6.43;;;;;;;24.75;50.40;101795.59;5031173;28;20033;-67
2023/06/25 03:37:21;;;;;;;7.45;6.13;;;;;;;24.75;50.60;101792.91;5030920;28;20479;-67
2023/06/25 03:39:46;;;;;;;9.15;6.30;;;;;;;24.73;50.57;101792.25;5031070;28;20037;-67
2023/06/25 03:42:11;;;;;;;8.30;6.18;;;;;;;24.73;50.64;101787.72;5030978;28;20025;-67
2023/06/25 03:44:37;;;;;;;7.78;6.07;;;;;;;24.73;50.65;101794.91;5031266;28;20066;-67
2023/06/25 03:47:02;;;;;;;8.52;6.35;;;;;;;24.72;50.67;101786.06;5030054;28;20108;-68
2023/06/25 03:49:28;;;;;;;8.07;6.43;;;;;;;24.73;50.40;101784.25;5030930;28;20116;-67
2023/06/25 03:51:53;;;;;;;8.03;6.17;;;;;;;24.73;50.34;101790.41;5031153;28;20037;-67
2023/06/25 03:54:18;;;;;;;8.17;6.30;;;;;;;24.72;50.29;101783.41;5031340;28;20828;-67
2023/06/25 03:56:43;;;;;;;9.75;6.60;;;;;;;24.73;50.31;101782.41;5029829;28;20262;-67
2023/06/25 03:59:09;;;;;;;9.25;5.88;;;;;;;24.73;50.26;101779.75;5030971;28;20469;-67
2023/06/25 04:01:34;;;;;;;8.98;6.43;;;;;;;24.72;50.65;101778.06;5030406;28;20040;-66
2023/06/25 04:03:59;;;;;;;8.52;6.38;;;;;;;24.72;50.48;101787.88;5030332;28;20055;-66
2023/06/25 04:06:25;;;;;;;9.30;6.70;;;;;;;24.72;50.45;101787.88;5021023;28;20117;-66
2023/06/25 04:08:50;;;;;;;8.68;6.30;;;;;;;24.71;50.58;101784.38;5030778;28;20034;-67
2023/06/25 04:11:15;;;;;;;8.40;6.60;;;;;;;24.71;50.38;101779.06;5030917;28;20034;-65
2023/06/25 04:13:40;;;;;;;8.98;6.32;;;;;;;24.70;50.35;101779.19;5031057;28;20265;-66
2023/06/25 04:16:07;;;;;;;7.93;6.70;;;;;;;24.72;50.26;101779.88;5030281;28;20033;-66
2023/06/25 04:18:32;;;;;;;8.55;6.20;;;;;;;24.69;50.29;101785.50;5030605;28;20046;-66
2023/06/25 04:20:58;;;;;;;8.77;6.60;;;;;;;24.68;50.10;101781.19;5032668;28;20048;-66
2023/06/25 04:23:23;;;;;;;8.05;6.70;;;;;;;24.68;50.79;101779.34;5030690;28;20052;-67
2023/06/25 04:25:48;;;;;;;8.45;6.50;;;;;;;24.70;50.57;101787.19;5031081;28;20041;-67
2023/06/25 04:28:15;;;;;;;8.52;6.45;;;;;;;24.68;50.64;101774.00;5030796;28;20033;-67
2023/06/25 04:30:40;;;;;;;8.07;6.35;;;;;;;24.69;50.40;101778.38;5029911;28;20075;-67
2023/06/25 04:33:06;;;;;;;8.20;6.70;;;;;;;24.70;50.34;101779.19;5030649;28;20060;-67
2023/06/25 04:35:32;;;;;;;8.40;6.50;;;;;;;24.69;50.57;101780.16;5028576;28;20366;-67
2023/06/25 04:37:57;;;;;;;8.15;6.38;;;;;;;24.70;50.48;101773.88;5030454;28;20039;-67
2023/06/25 04:40:23;;;;;;;7.60;6.22;;;;;;;24.68;50.29;101779.34;5030341;28;20422;-68
2023/06/25 04:42:48;;;;;;;8.13;6.30;;;;;;;24.70;50.61;101776.53;5033657;28;20655;-68
2023/06/25 04:45:13;;;;;;;8.87;6.30;;;;;;;24.68;50.51;101770.53;5033391;28;20034;-67
2023/06/25 04:47:39;;;;;;;7.97;6.30;;;;;;;24.69;50.76;101782.84;5033047;28;20354;-67
2023/06/25 04:50:05;;;;;;;7.68;6.15;;;;;;;24.69;50.78;101778.38;5034143;28;20029;-68
2023/06/25 04:52:30;;;;;;;8.45;6.88;;;;;;;24.70;50.54;101776.53;5034491;28;20108;-67
2023/06/25 04:54:55;;;;;;;9.38;6.55;;;;;;;24.70;50.24;101779.19;5033619;28;20059;-67
2023/06/25 04:57:21;;;;;;;8.10;6.47;;;;;;;24.69;50.30;101773.03;5033545;28;20183;-66
2023/06/25 04:59:46;;;;;;;8.63;6.47;;;;;;;24.69;50.53;101778.38;5033395;28;20057;-65
2023/06/25 05:02:11;;;;;;;7.65;6.38;;;;;;;24.70;50.35;101782.69;5034423;28;20404;-66
2023/06/25 05:04:36;;;;;;;8.27;6.17;;;;;;;24.71;50.73;101783.56;5035123;28;20052;-65
2023/06/25 05:07:02;;;;;;;8.03;6.03;;;;;;;24.70;50.25;101781.88;5033312;28;20299;-66
2023/06/25 05:09:27;;;;;;;7.25;6.05;;;;;;;24.70;50.34;101773.88;5033734;28;20271;-65
2023/06/25 05:11:52;;;;;;;8.85;6.43;;;;;;;24.69;50.29;101769.50;5032343;28;20037;-67
2023/06/25 05:14:18;;;;;;;8.00;6.47;;;;;;;24.68;50.56;101767.84;5033581;28;20025;-66
2023/06/25 05:16:43;;;;;;;8.60;6.85;;;;;;;24.67;50.13;101764.31;5033259;28;20095;-66
2023/06/25 05:19:08;;;;;;;7.85;6.70;;;;;;;24.69;50.35;101777.50;5032427;28;20763;-67
2023/06/25 05:21:34;;;;;;;8.35;6.43;;;;;;;24.67;50.25;101769.66;5033815;28;20037;-66
2023/06/25 05:24:01;;;;;;;9.68;6.65;;;;;;;24.67;50.46;101775.00;5033135;28;20434;-66
2023/06/25 05:26:27;;;;;;;6.95;6.15;;;;;;;24.67;50.09;101775.00;5033521;28;20033;-66
2023/06/25 05:28:53;;;;;;;9.25;6.10;;;;;;;24.69;50.47;101769.50;5033697;28;20037;-66
2023/06/25 05:31:19;;;;;;;7.65;5.78;;;;;;;24.67;50.33;101772.31;5033767;28;20577;-66
2023/06/25 05:33:44;;;;;;;7.88;6.00;;;;;;;24.67;50.30;101775.00;5032792;28;20204;-67
2023/06/25 05:36:10;;;;;;;8.43;6.37;;;;;;;24.66;50.54;101776.00;5033690;28;20029;-66
2023/06/25 05:38:36;;;;;;;8.00;5.72;;;;;;;24.66;50.43;101773.34;5033655;28;20262;-66
2023/06/25 05:41:01;;;;;;;7.43;5.80;;;;;;;24.69;50.47;101772.19;5033246;28;20082;-67
2023/06/25 05:43:26;;;;;;;8.35;6.38;;;;;;;24.66;50.56;101772.47;5032379;28;20070;-67
2023/06/25 05:45:52;;;;;;;8.77;6.07;;;;;;;24.67;50.20;101768.81;5032974;28;20207;-66
2023/06/25 05:48:17;;;;;;;8.38;6.13;;;;;;;24.69;50.50;101766.84;5032741;28;20059;-66
2023/06/25 05:50:43;;;;;;;7.50;5.63;;;;;;;24.66;50.39;101762.66;5032322;28;20126;-66
2023/06/25 05:53:08;;;;;;;7.55;6.00;;;;;;;24.65;50.01;101755.66;5032233;28;20086;-67
2023/06/25 05:55:33;;;;;;;8.05;6.20;;;;;;;24.67;50.36;101758.16;5032301;28;20033;-68
2023/06/25 05:57:58;;;;;;;8.90;6.20;;;;;;;24.67;50.61;101759.00;5032964;28;20512;-66
2023/06/25 06:00:24;;;;;;;7.82;6.00;;;;;;;24.69;50.42;101756.19;5032602;28;20119;-66
2023/06/25 06:02:49;;;;;;;7.28;5.60;;;;;;;24.70;50.42;101752.53;5032795;28;20040;-67
2023/06/25 06:05:14;;;;;;;8.13;6.15;;;;;;;24.68;50.48;101749.19;5031461;28;20075;-67
2023/06/25 06:07:40;;;;;;;8.50;5.75;;;;;;;24.69;50.07;101759.72;5031895;28;20482;-66
2023/06/25 06:10:06;;;;;;;7.95;6.20;;;;;;;24.70;50.47;101760.53;5032944;28;20044;-67
2023/06/25 06:12:32;;;;;;;6.97;5.43;;;;;;;24.69;49.96;101749.06;5032086;28;20041;-66
2023/06/25 06:14:57;;;;;;;6.30;4.95;;;;;;;24.70;50.20;101756.03;5032019;28;20529;-67
2023/06/25 06:17:22;;;;;;;7.95;6.13;;;;;;;24.72;49.88;101763.88;5032235;28;20059;-67
2023/06/25 06:19:48;;;;;;;9.98;7.70;;;;;;;24.69;49.14;101766.84;5032181;28;20035;-65
2023/06/25 06:22:14;;;;;;;10.98;7.82;;;;;;;24.62;49.02;101762.13;5032724;28;20087;-66
2023/06/25 06:24:49;;;;;;;10.38;7.95;;;;;;;24.61;48.27;101764.94;5031776;28;20037;-68
2023/06/25 06:27:14;;;;;;;11.50;8.18;;;;;;;24.58;48.45;101765.22;5032843;28;20108;-65
2023/06/25 06:29:39;;;;;;;11.77;7.25;;;;;;;24.57;47.90;101760.88;5032264;28;20139;-63
2023/06/25 06:32:05;;;;;;;10.63;7.65;;;;;;;24.54;48.53;101756.63;5032562;28;20036;-67
2023/06/25 06:34:30;;;;;;;11.68;7.78;;;;;;;24.55;48.51;101762.81;5032284;28;20068;-66
2023/06/25 06:36:56;;;;;;;11.15;6.70;;;;;;;24.51;48.15;101756.91;5031976;28;21011;-66
2023/06/25 06:39:22;;;;;;;10.25;6.88;;;;;;;24.51;48.23;101756.91;5031867;28;20033;-65
2023/06/25 06:41:48;;;;;;;8.40;6.07;;;;;;;24.50;47.58;101754.41;5031773;28;20032;-66
2023/06/25 06:44:15;;;;;;;8.77;5.95;;;;;;;24.47;46.82;101744.88;5031896;28;20037;-65
2023/06/25 06:46:41;;;;;;;7.80;5.50;;;;;;;24.47;45.79;101746.69;5031423;28;20388;-66
2023/06/25 06:49:07;;;;;;;9.57;5.97;;;;;;;24.48;46.12;101756.38;5031115;28;20071;-66
2023/06/25 06:51:32;;;;;;;7.80;4.80;;;;;;;24.45;46.43;101745.03;5031723;28;20425;-66
2023/06/25 06:53:58;;;;;;;7.65;4.53;;;;;;;24.46;46.33;101745.88;5031163;28;20075;-66
2023/06/25 06:56:23;;;;;;;8.63;4.85;;;;;;;24.46;45.08;101743.19;5031851;28;20036;-67
2023/06/25 06:58:48;;;;;;;9.13;4.85;;;;;;;24.47;45.21;101744.03;5031608;28;20044;-67
2023/06/25 07:01:14;;;;;;;7.00;4.43;;;;;;;24.47;45.15;101747.56;5031615;28;20044;-65
2023/06/25 07:03:39;;;;;;;5.95;4.28;;;;;;;24.45;44.37;101746.88;5031406;28;20078;-66
2023/06/25 07:06:05;;;;;;;8.18;4.25;;;;;;;24.45;44.32;101744.19;5031307;28;20409;-64
2023/06/25 07:08:30;;;;;;;6.78;4.00;;;;;;;24.48;44.41;101748.38;5030542;28;20860;-65
2023/06/25 07:10:55;;;;;;;6.20;4.00;;;;;;;24.48;43.52;101745.72;5031733;28;20033;-65
2023/06/25 07:13:21;;;;;;;7.65;4.18;;;;;;;24.47;43.62;101739.56;5031143;28;20834;-64
2023/06/25 07:15:46;;;;;;;6.38;3.85;;;;;;;24.47;43.94;101742.22;5031402;28;20040;-67
2023/06/25 07:18:11;;;;;;;6.97;4.38;;;;;;;24.46;44.28;101745.88;5030440;28;20401;-65
2023/06/25 07:20:37;;;;;;;7.45;4.30;;;;;;;24.50;44.51;101754.41;5030885;28;20045;-65
2023/06/25 07:23:02;;;;;;;7.53;4.10;;;;;;;24.51;44.34;101748.09;5030354;28;20028;-65
2023/06/25 07:25:27;;;;;;;6.55;4.20;;;;;;;24.51;44.34;101748.91;5031285;28;20064;-66
2023/06/25 07:27:53;;;;;;;6.15;3.80;;;;;;;24.53;44.67;101743.44;5030455;28;20033;-65
2023/06/25 07:30:18;;;;;;;7.18;4.40;;;;;;;24.54;44.25;101745.97;5031076;28;20025;-65
2023/06/25 07:32:43;;;;;;;6.25;3.75;;;;;;;24.56;45.11;101743.16;5030835;28;20426;-65
2023/06/25 07:35:09;;;;;;;6.10;4.05;;;;;;;24.56;45.05;101743.16;5031134;28;20036;-64
2023/06/25 07:37:34;;;;;;;7.22;4.10;;;;;;;24.55;44.70;101739.66;5030483;28;20048;-65
2023/06/25 07:39:59;;;;;;;6.25;3.83;;;;;;;24.60;44.81;101736.59;5030087;28;20862;-65
2023/06/25 07:42:25;;;;;;;6.40;3.90;;;;;;;24.60;45.33;101731.28;5030732;28;20429;-66
2023/06/25 07:44:50;;;;;;;9.75;4.25;;;;;;;24.63;44.97;101742.47;5030743;28;20258;-66
2023/06/25 07:47:15;;;;;;;6.75;3.95;;;;;;;24.67;45.40;101739.50;5028794;28;20027;-70
2023/06/25 07:49:41;;;;;;;6.97;4.47;;;;;;;24.68;45.01;101736.69;5030821;28;20037;-66
2023/06/25 07:52:06;;;;;;;8.60;3.83;;;;;;;24.69;45.46;101734.88;5029535;28;20029;-66
2023/06/25 07:54:32;;;;;;;5.85;3.67;;;;;;;24.72;45.54;101729.25;5029716;28;20110;-65
2023/06/25 07:56:57;;;;;;;6.60;4.22;;;;;;;24.72;45.50;101727.44;5030720;28;20037;-65
2023/06/25 07:59:22;;;;;;;5.65;3.80;;;;;;;24.73;46.08;101729.09;5030857;28;20242;-65
2023/06/25 08:01:48;;;;;;;6.68;4.15;;;;;;;24.76;46.25;101730.63;5030343;28;20029;-67
2023/06/25 08:04:13;;;;;;;7.60;4.20;;;;;;;24.79;45.88;101730.34;5031102;28;20040;-65
2023/06/25 08:06:38;;;;;;;7.95;4.72;;;;;;;24.80;47.04;101727.53;5029561;28;20500;-64
2023/06/25 08:09:04;;;;;;;8.40;4.18;;;;;;;24.81;47.31;101728.38;5029640;28;20048;-66
2023/06/25 08:11:29;;;;;;;6.20;4.07;;;;;;;24.83;47.53;101725.56;5030270;28;20037;-66
2023/06/25 08:13:54;;;;;;;6.57;4.40;;;;;;;24.86;47.83;101726.09;5030791;28;20029;-66
2023/06/25 08:16:20;;;;;;;6.97;4.13;;;;;;;24.86;47.99;101725.25;5031599;28;20493;-66
2023/06/25 08:18:45;;;;;;;6.82;4.03;;;;;;;24.90;48.58;101723.97;5032653;28;20053;-66
2023/06/25 08:21:12;;;;;;;8.00;4.65;;;;;;;24.92;48.35;101724.66;5033923;28;20648;-68
2023/06/25 08:23:37;;;;;;;5.70;3.83;;;;;;;24.92;48.30;101722.00;5033351;28;20541;-67
2023/06/25 08:26:02;;;;;;;6.03;3.97;;;;;;;24.92;48.57;101722.84;5034330;28;20073;-67
2023/06/25 08:28:28;;;;;;;6.88;4.32;;;;;;;24.92;48.46;101722.00;5034395;28;20121;-66
2023/06/25 08:30:53;;;;;;;5.75;3.63;;;;;;;24.91;48.22;101718.50;5032754;28;20079;-66
2023/06/25 08:33:18;;;;;;;8.25;4.07;;;;;;;24.95;48.88;101717.19;5034202;28;20089;-67
2023/06/25 08:35:44;;;;;;;6.65;4.38;;;;;;;24.95;48.22;101708.38;5033785;28;20033;-67
2023/06/25 08:38:10;;;;;;;7.22;4.00;;;;;;;24.89;48.74;101699.13;5033595;28;20095;-67
2023/06/25 08:40:36;;;;;;;7.30;3.95;;;;;;;24.95;48.90;101708.38;5033464;28;20025;-66
2023/06/25 08:43:02;;;;;;;6.07;4.20;;;;;;;24.96;48.91;101705.56;5032155;28;20793;-66
2023/06/25 08:45:27;;;;;;;6.43;3.65;;;;;;;24.96;48.69;101705.56;5033839;28;20071;-67
2023/06/25 08:47:58;;;;;;;5.38;3.50;;;;;;;24.97;48.97;101709.06;5033960;28;20125;-68
2023/06/25 08:50:25;;;;;;;5.43;3.60;;;;;;;24.99;48.59;101707.94;5033651;28;20104;-69
2023/06/25 08:52:51;;;;;;;7.68;4.07;;;;;;;24.98;48.84;101697.41;5033753;28;20443;-65
2023/06/25 08:55:19;;;;;;;5.90;3.85;;;;;;;24.99;48.68;101704.41;5033980;28;20054;-65
2023/06/25 08:57:45;;;;;;;6.28;3.80;;;;;;;25.00;49.14;101700.75;5033373;28;20547;-65
2023/06/25 09:00:13;;;;;;;8.07;3.83;;;;;;;24.99;49.09;101696.41;5033568;28;20029;-66
2023/06/25 09:02:38;;;;;;;5.95;3.75;;;;;;;24.99;48.89;101702.59;5033192;28;20100;-66
2023/06/25 09:05:10;;;;;;;6.40;3.75;;;;;;;24.97;48.75;101695.72;5031966;28;20679;-68
2023/06/25 09:07:43;;;;;;;6.07;4.20;;;;;;;24.97;49.07;101701.88;5033208;28;20033;-65
2023/06/25 09:10:09;;;;;;;5.93;3.78;;;;;;;24.99;48.63;101701.72;5032972;28;20025;-65
2023/06/25 09:12:34;;;;;;;4.97;3.17;;;;;;;25.01;48.49;101691.78;5033666;28;20400;-66
2023/06/25 09:15:00;;;;;;;5.45;3.78;;;;;;;25.02;48.95;101692.63;5033392;28;20053;-66
2023/06/25 09:17:25;;;;;;;6.38;3.75;;;;;;;25.01;48.38;101694.44;5032952;28;20029;-66
2023/06/25 09:19:51;;;;;;;5.63;3.80;;;;;;;25.03;48.86;101689.78;5033428;28;20047;-65
2023/06/25 09:22:16;;;;;;;6.20;3.97;;;;;;;25.01;48.56;101682.91;5033316;28;20037;-67
2023/06/25 09:24:43;;;;;;;5.47;3.55;;;;;;;25.02;48.93;101680.09;5033446;28;20104;-66
2023/06/25 09:27:09;;;;;;;6.20;4.05;;;;;;;25.03;48.91;101678.31;5032533;28;21222;-65
2023/06/25 09:29:36;;;;;;;5.18;3.63;;;;;;;24.99;49.00;101675.94;5032723;28;20044;-67
2023/06/25 09:32:07;;;;;;;5.90;3.92;;;;;;;25.00;48.89;101684.75;5032867;28;20032;-66
2023/06/25 09:34:33;;;;;;;5.75;3.85;;;;;;;25.04;48.92;101679.97;5032903;28;20474;-66
2023/06/25 09:36:58;;;;;;;5.85;3.88;;;;;;;25.04;48.95;101678.16;5032883;28;20029;-65
2023/06/25 09:39:23;;;;;;;5.30;3.47;;;;;;;25.04;48.76;101682.63;5032756;28;20028;-66
2023/06/25 09:41:50;;;;;;;5.78;3.53;;;;;;;25.05;48.91;101676.31;5032800;28;20273;-67
2023/06/25 09:44:17;;;;;;;5.60;3.80;;;;;;;25.05;49.09;101679.81;5032704;28;20029;-66
2023/06/25 09:46:46;;;;;;;5.45;3.38;;;;;;;25.06;48.93;101673.50;5032554;28;20063;-66
2023/06/25 09:49:13;;;;;;;5.30;3.22;;;;;;;25.04;48.65;101667.47;5039138;28;20104;-66
2023/06/25 09:52:02;;;;;;;5.97;3.75;;;;;;;25.05;48.87;101663.81;5032215;28;20040;-66
2023/06/25 09:54:29;;;;;;;5.85;3.78;;;;;;;25.05;48.45;101665.66;5032829;28;20485;-66
2023/06/25 09:56:57;;;;;;;5.70;3.38;;;;;;;25.05;48.33;101657.66;5032380;28;20029;-66
2023/06/25 09:59:24;;;;;;;5.43;3.75;;;;;;;25.07;48.82;101669.00;5033039;28;20045;-66
2023/06/25 10:01:50;;;;;;;5.30;3.58;;;;;;;25.05;48.31;101660.31;5032646;28;20034;-66
2023/06/25 10:04:16;;;;;;;5.38;3.60;;;;;;;25.06;48.55;101665.50;5032325;28;20469;-67
2023/06/25 10:06:41;;;;;;;5.43;3.63;;;;;;;25.06;48.54;101660.16;5032456;28;20037;-67
2023/06/25 10:09:07;;;;;;;4.93;3.35;;;;;;;25.07;48.68;101658.31;5032392;28;20075;-67
2023/06/25 10:11:34;;;;;;;6.13;3.60;;;;;;;25.05;48.34;101658.47;5030693;28;20029;-66
2023/06/25 10:13:59;;;;;;;8.25;3.60;;;;;;;25.07;48.34;101659.19;5037798;28;20032;-67
2023/06/25 10:16:31;;;;;;;5.20;3.40;;;;;;;25.07;48.22;101653.00;5030322;28;20033;-66
2023/06/25 10:18:56;;;;;;;5.57;3.42;;;;;;;25.11;48.74;101655.22;5030790;28;20757;-65
2023/06/25 10:21:23;;;;;;;6.82;3.40;;;;;;;25.10;48.75;101650.88;5031640;28;20044;-65
2023/06/25 10:24:03;;;;;;;5.72;3.20;;;;;;;25.09;49.08;101651.03;5031312;28;20036;-64
2023/06/25 10:26:33;;;;;;;5.68;3.70;;;;;;;25.10;49.13;101645.53;5032011;28;20029;-63
2023/06/25 10:29:01;;;;;;;5.97;3.35;;;;;;;25.11;49.20;101643.72;5031422;28;20048;-66
2023/06/25 10:31:37;;;;;;;7.10;3.88;;;;;;;25.09;49.36;101645.69;5031278;28;20538;-65
2023/06/25 10:34:05;;;;;;;5.80;3.55;;;;;;;25.13;49.14;101628.38;5031037;28;20040;-67
2023/06/25 10:36:30;;;;;;;6.28;3.42;;;;;;;25.13;49.55;101642.59;5031851;28;20504;-66
2023/06/25 10:38:58;;;;;;;6.75;3.40;;;;;;;25.14;49.50;101638.06;5031021;28;20120;-65
2023/06/25 10:41:30;;;;;;;6.28;3.17;;;;;;;25.16;49.41;101628.91;5029125;28;20052;-70
2023/06/25 10:43:59;;;;;;;5.45;3.28;;;;;;;25.18;49.36;101623.41;5031751;28;20047;-64
2023/06/25 10:46:31;;;;;;;5.25;3.47;;;;;;;25.19;49.35;101624.28;5030907;28;20033;-66
2023/06/25 10:48:59;;;;;;;6.80;3.20;;;;;;;25.23;49.08;101617.63;5031340;28;20143;-66
2023/06/25 10:51:27;;;;;;;5.85;3.83;;;;;;;25.27;48.81;101633.19;5031257;28;20037;-66
2023/06/25 10:53:56;;;;;;;5.35;3.35;;;;;;;25.26;48.87;101625.31;5030670;28;20033;-65
2023/06/25 10:56:24;;;;;;;6.28;3.45;;;;;;;25.27;48.80;101621.69;5030682;28;21353;-65
2023/06/25 10:58:57;;;;;;;6.25;4.10;;;;;;;25.27;49.03;101619.00;5031021;28;20106;-64
2023/06/25 11:01:23;;;;;;;5.93;3.95;;;;;;;25.32;48.58;101616.75;5030558;28;20067;-66
2023/06/25 11:03:48;;;;;;;5.72;3.90;;;;;;;25.32;48.77;101611.41;5030391;28;20033;-64
2023/06/25 11:06:14;;;;;;;7.72;3.80;;;;;;;25.34;48.74;101606.75;5031026;28;20044;-66
2023/06/25 11:08:42;;;;;;;5.80;3.90;;;;;;;25.35;49.13;101605.78;5030751;28;20040;-66
2023/06/25 11:11:08;;;;;;;6.88;3.72;;;;;;;25.37;49.06;101611.78;5031364;28;20094;-68
2023/06/25 11:13:33;;;;;;;5.55;3.25;;;;;;;25.37;49.12;101606.44;5030192;28;20033;-65
2023/06/25 11:15:58;;;;;;;6.05;3.38;;;;;;;25.39;49.19;101598.28;5030737;28;20477;-64
2023/06/25 11:18:23;;;;;;;6.13;3.80;;;;;;;25.38;49.16;101605.47;5030028;28;20521;-65